Time;durP1;ratioP1;P1;durP2;ratioP2;P2;SDS_P1;SDS_P2;PMS_P1;PMS_P2;Temp;Humidity;BMP_temperature;BMP_pressure;BME280_temperature;BME280_humidity;BME280_pressure;Samples;Min_cycle;Max_cycle;Signal;HPM_P1;HPM_P2
2021/07/15 00:00:12;;;;;;;13.82;8.20;;;;;;;30.32;46.99;99176.59;4469864;32;34888;-66
2021/07/15 00:02:40;;;;;;;11.70;7.72;;;;;;;30.32;47.02;99181.28;4442860;32;34567;-66
2021/07/15 00:05:11;;;;;;;13.35;6.50;;;;;;;30.33;47.03;99172.72;4469508;32;33321;-66
2021/07/15 00:07:39;;;;;;;14.05;6.93;;;;;;;30.32;46.98;99173.03;4469742;32;33521;-67
2021/07/15 00:10:27;;;;;;;14.82;7.45;;;;;;;30.33;46.94;99171.91;4469364;32;33630;-66
2021/07/15 00:12:55;;;;;;;15.68;7.70;;;;;;;30.34;46.96;99190.88;4469439;32;33882;-66
2021/07/15 00:15:23;;;;;;;14.68;6.37;;;;;;;30.30;46.92;99181.53;4469261;32;33105;-67
2021/07/15 00:17:55;;;;;;;18.08;6.70;;;;;;;30.32;46.82;99179.34;4442783;32;33984;-67
2021/07/15 00:20:23;;;;;;;18.90;7.65;;;;;;;30.34;46.82;99173.53;4455204;32;33646;-67
2021/07/15 00:22:51;;;;;;;14.73;6.60;;;;;;;30.31;46.86;99166.69;4469527;32;33901;-65
2021/07/15 00:25:20;;;;;;;11.05;6.43;;;;;;;30.32;46.84;99179.34;4469277;32;33093;-67
2021/07/15 00:27:48;;;;;;;16.20;6.53;;;;;;;30.29;46.77;99179.09;4469192;32;34749;-66
2021/07/15 00:30:15;;;;;;;12.02;6.07;;;;;;;30.30;46.89;99180.72;4460634;32;34767;-67
2021/07/15 00:32:43;;;;;;;11.93;5.70;;;;;;;30.31;46.88;99176.84;4484891;32;34615;-67
2021/07/15 00:35:11;;;;;;;13.43;6.10;;;;;;;30.30;46.80;99176.03;4484693;32;34108;-66
2021/07/15 00:37:39;;;;;;;16.02;6.35;;;;;;;30.30;46.79;99175.22;4484970;32;33565;-66
2021/07/15 00:40:14;;;;;;;13.20;5.80;;;;;;;30.29;46.93;99184.59;4471549;32;34932;-66
2021/07/15 00:42:42;;;;;;;12.95;6.05;;;;;;;30.29;46.75;99177.16;4470826;32;33563;-66
2021/07/15 00:45:11;;;;;;;14.55;6.53;;;;;;;30.30;46.79;99166.97;4470673;32;33586;-65
2021/07/15 00:47:38;;;;;;;13.85;6.25;;;;;;;30.28;46.78;99172.75;4484030;32;33877;-66
2021/07/15 00:50:07;;;;;;;10.80;5.75;;;;;;;30.29;46.76;99174.41;4470694;32;34050;-66
2021/07/15 00:52:35;;;;;;;12.85;5.65;;;;;;;30.28;46.75;99172.75;4479456;32;34013;-66
2021/07/15 00:55:05;;;;;;;12.52;6.12;;;;;;;30.29;46.73;99174.41;4469224;32;33871;-66
2021/07/15 00:57:33;;;;;;;9.43;5.95;;;;;;;30.27;46.71;99173.06;4469166;32;33899;-66
2021/07/15 01:00:00;;;;;;;13.18;5.57;;;;;;;30.28;46.63;99180.19;4442307;32;34065;-67
2021/07/15 01:02:29;;;;;;;16.95;5.70;;;;;;;30.28;46.70;99178.28;4455008;32;33905;-66
2021/07/15 01:04:57;;;;;;;8.60;5.30;;;;;;;30.28;46.65;99170.00;4453193;32;33865;-66
2021/07/15 01:07:24;;;;;;;10.88;5.45;;;;;;;30.27;46.57;99171.13;4457452;32;32601;-66
2021/07/15 01:09:52;;;;;;;11.20;5.62;;;;;;;30.26;46.61;99180.47;4470419;32;34077;-65
2021/07/15 01:12:47;;;;;;;14.00;6.40;;;;;;;30.27;46.58;99189.56;4470709;32;34081;-67
2021/07/15 01:15:16;;;;;;;12.75;5.57;;;;;;;30.32;46.53;99178.53;4484533;32;33516;-66
2021/07/15 01:17:49;;;;;;;13.80;6.25;;;;;;;30.26;46.75;99168.66;4470560;32;33595;-66
2021/07/15 01:20:25;;;;;;;10.80;5.72;;;;;;;30.28;46.71;99160.94;4484580;32;34874;-65
2021/07/15 01:23:14;;;;;;;10.65;5.85;;;;;;;30.26;46.76;99160.38;4453434;32;34022;-65
2021/07/15 01:26:03;;;;;;;10.95;6.50;;;;;;;30.29;46.71;99152.38;4466138;32;34639;-67
2021/07/15 01:28:46;;;;;;;13.77;6.30;;;;;;;30.25;46.70;99145.81;4468962;32;34191;-67
2021/07/15 01:31:14;;;;;;;12.48;6.47;;;;;;;30.25;46.76;99143.06;4468855;32;34681;-65
2021/07/15 01:33:42;;;;;;;10.02;6.15;;;;;;;30.23;46.80;99129.59;4442231;32;33892;-67
2021/07/15 01:36:10;;;;;;;10.88;5.87;;;;;;;30.22;46.78;99132.66;4454594;32;34552;-66
2021/07/15 01:38:42;;;;;;;17.83;7.07;;;;;;;30.23;46.79;99139.78;4449945;32;33890;-66
2021/07/15 01:41:14;;;;;;;12.13;6.75;;;;;;;30.23;46.78;99139.78;4457978;32;34951;-66
2021/07/15 01:43:44;;;;;;;12.60;7.22;;;;;;;30.25;46.85;99132.06;4470204;32;34513;-66
2021/07/15 01:46:13;;;;;;;12.18;7.00;;;;;;;30.23;46.87;99124.09;4458002;32;34157;-66
2021/07/15 01:48:40;;;;;;;12.18;6.10;;;;;;;30.24;46.87;99116.66;4484376;32;33815;-67
2021/07/15 01:51:08;;;;;;;12.55;6.80;;;;;;;30.23;46.95;99132.34;4457747;32;33635;-66
2021/07/15 01:53:36;;;;;;;13.07;6.47;;;;;;;30.23;46.96;99146.09;4470333;32;33552;-66
2021/07/15 01:56:04;;;;;;;12.45;6.72;;;;;;;30.24;46.97;99149.69;4457199;32;33601;-66
2021/07/15 01:58:33;;;;;;;13.45;7.30;;;;;;;30.23;47.07;99165.38;4468812;32;34621;-66
2021/07/15 02:01:01;;;;;;;12.18;6.68;;;;;;;30.23;47.02;99167.31;4442175;32;34490;-67
2021/07/15 02:03:29;;;;;;;12.52;7.07;;;;;;;30.24;46.99;99166.19;4454683;32;34639;-66
2021/07/15 02:05:57;;;;;;;11.00;7.07;;;;;;;30.23;46.90;99157.13;4441891;32;33431;-67
2021/07/15 02:08:24;;;;;;;11.98;6.68;;;;;;;30.23;46.93;99157.13;4441974;32;33992;-66
2021/07/15 02:10:52;;;;;;;13.23;7.15;;;;;;;30.23;47.02;99170.87;4441681;32;34845;-66
2021/07/15 02:13:19;;;;;;;14.32;7.57;;;;;;;30.23;46.97;99175.56;4454875;32;34614;-67
2021/07/15 02:15:47;;;;;;;11.27;6.78;;;;;;;30.23;46.96;99168.13;4441685;32;33397;-66
2021/07/15 02:18:19;;;;;;;17.90;7.10;;;;;;;30.23;46.89;99153.53;4429063;32;35410;-66
2021/07/15 02:20:48;;;;;;;15.50;7.07;;;;;;;30.22;46.96;99163.72;4468646;32;34175;-67
2021/07/15 02:23:16;;;;;;;15.55;7.50;;;;;;;30.23;46.93;99181.88;4454660;32;33879;-67
2021/07/15 02:25:44;;;;;;;18.23;7.05;;;;;;;30.23;46.95;99183.81;4441439;32;33166;-66
2021/07/15 02:28:11;;;;;;;17.02;7.65;;;;;;;30.23;46.97;99181.06;4441755;32;34799;-66
2021/07/15 02:30:45;;;;;;;15.15;7.90;;;;;;;30.22;46.97;99185.75;4455080;32;34126;-66
2021/07/15 02:33:13;;;;;;;14.77;7.43;;;;;;;30.22;46.93;99205.00;4441662;32;33908;-66
2021/07/15 02:35:43;;;;;;;13.30;7.00;;;;;;;30.23;46.91;99214.09;4441615;32;33379;-66
2021/07/15 02:38:11;;;;;;;11.30;7.37;;;;;;;30.21;46.90;99222.59;4467897;32;33575;-66
2021/07/15 02:40:39;;;;;;;17.20;7.62;;;;;;;30.22;46.89;99224.28;4441627;32;34021;-67
2021/07/15 02:43:06;;;;;;;12.93;7.10;;;;;;;30.23;46.82;99238.84;4468422;32;33997;-67
2021/07/15 02:45:34;;;;;;;16.37;7.60;;;;;;;30.22;46.84;99228.97;4459323;32;84734;-66
2021/07/15 02:48:01;;;;;;;13.82;7.47;;;;;;;30.21;46.87;99225.34;4483918;32;34028;-67
2021/07/15 02:50:29;;;;;;;11.80;7.47;;;;;;;30.21;46.88;99205.28;4483819;31;34540;-67
2021/07/15 02:52:57;;;;;;;14.52;7.70;;;;;;;30.22;46.86;99212.44;4483833;32;33497;-67
2021/07/15 02:55:25;;;;;;;12.15;7.18;;;;;;;30.21;46.89;99222.59;4469540;32;34190;-67
2021/07/15 02:58:10;;;;;;;18.20;8.18;;;;;;;30.21;46.88;99221.78;4469717;32;33941;-67
2021/07/15 03:00:44;;;;;;;15.07;7.45;;;;;;;30.24;46.78;99218.47;4469590;32;34822;-66
2021/07/15 03:03:34;;;;;;;15.70;7.47;;;;;;;30.20;46.64;99214.66;4483443;32;33870;-66
2021/07/15 03:06:10;;;;;;;11.40;7.72;;;;;;;30.22;46.68;99216.03;4483752;32;34522;-65
2021/07/15 03:08:43;;;;;;;15.63;7.55;;;;;;;30.21;46.67;99214.34;4469743;32;34109;-66
2021/07/15 03:11:12;;;;;;;15.18;7.57;;;;;;;30.18;46.66;99217.69;4483812;32;34554;-66
2021/07/15 03:13:40;;;;;;;16.30;8.10;;;;;;;30.18;46.61;99212.19;4469652;32;33822;-66
2021/07/15 03:16:07;;;;;;;11.60;7.80;;;;;;;30.18;46.57;99212.19;4456656;32;33635;-66
2021/07/15 03:18:35;;;;;;;13.27;7.18;;;;;;;30.19;46.65;99208.31;4456608;32;33637;-66
2021/07/15 03:21:04;;;;;;;12.85;7.68;;;;;;;30.18;46.72;99208.63;4453826;32;34292;-66
2021/07/15 03:23:32;;;;;;;11.95;7.87;;;;;;;30.18;46.70;99214.13;4467621;32;34675;-66
2021/07/15 03:26:00;;;;;;;11.70;7.62;;;;;;;30.19;46.68;99230.34;4440785;32;33484;-66
2021/07/15 03:28:30;;;;;;;14.95;8.27;;;;;;;30.18;46.70;99247.16;4453709;32;33950;-66
2021/07/15 03:31:02;;;;;;;11.55;7.95;;;;;;;30.17;46.67;99257.34;4453496;32;33642;-65
2021/07/15 03:33:30;;;;;;;14.40;8.05;;;;;;;30.18;46.54;99256.22;4453606;32;34679;-67
2021/07/15 03:35:57;;;;;;;16.85;7.87;;;;;;;30.18;46.51;99261.72;4460744;31;34637;-65
2021/07/15 03:38:25;;;;;;;15.20;8.65;;;;;;;30.18;46.63;99266.41;4484423;31;34098;-65
2021/07/15 03:40:52;;;;;;;13.98;7.15;;;;;;;30.19;46.72;99279.06;4484825;31;34023;-66
2021/07/15 03:43:20;;;;;;;14.45;7.95;;;;;;;30.18;46.73;99282.91;4471853;31;33743;-65
2021/07/15 03:45:49;;;;;;;10.73;7.20;;;;;;;30.16;46.75;99283.19;4498571;31;33498;-66
2021/07/15 03:48:17;;;;;;;13.87;8.30;;;;;;;30.16;46.78;99268.59;4471999;31;34032;-66
2021/07/15 03:50:44;;;;;;;15.15;7.78;;;;;;;30.19;46.76;99259.78;4501016;31;34768;-66
2021/07/15 03:53:12;;;;;;;12.98;7.57;;;;;;;30.18;46.86;99247.16;4473933;31;33627;-66
2021/07/15 03:55:39;;;;;;;14.43;8.18;;;;;;;30.17;46.92;99242.72;4463514;32;33485;-66
2021/07/15 03:58:08;;;;;;;11.90;7.90;;;;;;;30.16;46.99;99233.66;4458083;32;32467;-65
2021/07/15 04:00:37;;;;;;;12.85;8.40;;;;;;;30.16;46.97;99233.66;4471147;32;34108;-65
2021/07/15 04:03:06;;;;;;;16.05;7.90;;;;;;;30.17;46.90;99229.81;4471398;32;33480;-65
2021/07/15 04:05:35;;;;;;;14.87;8.50;;;;;;;30.16;46.98;99211.62;4485093;32;33561;-64
2021/07/15 04:08:03;;;;;;;16.12;7.95;;;;;;;30.17;47.07;99217.97;4458487;32;34646;-65
2021/07/15 04:10:31;;;;;;;14.23;8.07;;;;;;;30.17;46.96;99216.06;4458230;32;34283;-64
2021/07/15 04:12:59;;;;;;;12.95;7.93;;;;;;;30.17;47.00;99224.31;4471132;32;33832;-65
2021/07/15 04:15:56;;;;;;;13.23;8.63;;;;;;;30.16;46.97;99219.91;4458119;32;33487;-64
2021/07/15 04:18:27;;;;;;;15.68;8.25;;;;;;;30.16;46.99;99214.38;4473973;32;33936;-64
2021/07/15 04:20:55;;;;;;;12.48;7.75;;;;;;;30.15;46.98;99215.50;4471012;32;34364;-65
2021/07/15 04:23:23;;;;;;;13.45;7.55;;;;;;;30.16;46.90;99230.09;4471118;32;34586;-67
2021/07/15 04:25:51;;;;;;;12.57;7.90;;;;;;;30.15;46.82;99234.75;4458161;32;33248;-66
2021/07/15 04:28:19;;;;;;;12.80;8.63;;;;;;;30.15;46.79;99237.53;4470970;32;34062;-66
2021/07/15 04:30:51;;;;;;;20.95;8.07;;;;;;;30.15;46.79;99243.03;4470786;32;33982;-66
2021/07/15 04:33:18;;;;;;;14.70;8.82;;;;;;;30.16;46.89;99252.09;4458539;32;33683;-64
2021/07/15 04:35:46;;;;;;;15.70;8.55;;;;;;;30.16;46.80;99268.59;4457741;32;33296;-65
2021/07/15 04:38:13;;;;;;;14.27;7.97;;;;;;;30.15;46.83;99264.22;4484853;32;34370;-64
2021/07/15 04:40:41;;;;;;;12.35;8.10;;;;;;;30.14;46.82;99262.56;4470905;32;34016;-65
2021/07/15 04:43:10;;;;;;;14.73;8.05;;;;;;;30.14;46.88;99260.66;4458437;32;33945;-65
2021/07/15 04:45:40;;;;;;;12.57;7.80;;;;;;;30.16;46.86;99260.34;4476522;32;33243;-65
2021/07/15 04:48:07;;;;;;;;;;;;;;;30.15;46.90;99262.28;4485310;32;33996;-64
2021/07/15 04:50:35;;;;;;;11.77;8.30;;;;;;;30.28;46.67;99265.50;4483648;32;34376;-66
2021/07/15 04:53:07;;;;;;;13.48;8.20;;;;;;;30.17;46.84;99276.59;4483530;32;34635;-64
2021/07/15 04:55:35;;;;;;;12.63;7.57;;;;;;;30.15;46.95;99273.28;4463771;32;33084;-65
2021/07/15 04:58:04;;;;;;;16.40;8.43;;;;;;;30.14;46.97;99277.16;4484799;32;33931;-64
2021/07/15 05:00:31;;;;;;;14.27;8.45;;;;;;;30.15;46.96;99277.97;4484653;32;34114;-65
2021/07/15 05:03:00;;;;;;;15.15;9.68;;;;;;;30.14;46.96;99288.16;4470773;32;33921;-65
2021/07/15 05:05:27;;;;;;;15.90;8.50;;;;;;;30.14;47.13;99299.16;4484823;32;34231;-65
2021/07/15 05:07:55;;;;;;;15.20;8.75;;;;;;;30.14;47.07;99303.84;4470444;32;33899;-64
2021/07/15 05:10:22;;;;;;;14.73;8.98;;;;;;;30.14;47.04;99309.34;4484756;32;34222;-64
2021/07/15 05:12:50;;;;;;;15.75;9.25;;;;;;;30.14;47.07;99312.09;4484717;32;33812;-65
2021/07/15 05:15:17;;;;;;;15.98;8.70;;;;;;;30.14;46.99;99317.59;4470645;32;33360;-65
2021/07/15 05:17:45;;;;;;;13.62;8.45;;;;;;;30.14;47.01;99317.59;4470550;32;33626;-65
2021/07/15 05:20:13;;;;;;;14.27;8.60;;;;;;;30.15;47.01;99319.25;4484626;32;34201;-64
2021/07/15 05:22:41;;;;;;;14.38;8.90;;;;;;;30.15;46.99;99316.50;4484697;32;34621;-64
2021/07/15 05:25:10;;;;;;;18.00;9.57;;;;;;;30.15;46.98;99322.81;4484609;32;34261;-64
2021/07/15 05:27:37;;;;;;;13.55;8.13;;;;;;;30.14;47.11;99325.88;4470757;32;33880;-64
2021/07/15 05:30:05;;;;;;;14.65;9.05;;;;;;;30.13;47.08;99322.28;4470432;32;35084;-65
2021/07/15 05:32:34;;;;;;;14.57;8.60;;;;;;;30.14;47.05;99329.44;4484526;32;33801;-64
2021/07/15 05:35:01;;;;;;;13.00;8.70;;;;;;;30.14;47.04;99323.94;4470092;32;33515;-64
2021/07/15 05:37:29;;;;;;;12.80;8.10;;;;;;;30.15;46.99;99330.25;4484356;32;35349;-64
2021/07/15 05:39:56;;;;;;;12.32;8.80;;;;;;;30.14;46.97;99326.69;4484525;32;34086;-64
2021/07/15 05:42:24;;;;;;;13.95;8.73;;;;;;;30.14;46.96;99314.84;4484378;32;33781;-65
2021/07/15 05:44:52;;;;;;;10.82;7.82;;;;;;;30.15;46.94;99311.00;4484259;32;33891;-64
2021/07/15 05:47:20;;;;;;;12.10;7.68;;;;;;;30.14;46.84;99307.41;4484387;32;33831;-65
2021/07/15 05:49:48;;;;;;;17.80;8.57;;;;;;;30.15;46.82;99305.47;4475633;32;33758;-65
2021/07/15 05:52:15;;;;;;;16.42;8.75;;;;;;;30.15;46.77;99319.25;4474695;32;33407;-66
2021/07/15 05:54:43;;;;;;;16.27;8.73;;;;;;;30.13;46.71;99324.19;4458543;32;33443;-66
2021/07/15 05:57:10;;;;;;;15.05;8.48;;;;;;;30.13;46.72;99321.44;4468379;32;33977;-65
2021/07/15 05:59:38;;;;;;;14.02;7.75;;;;;;;30.13;46.61;99327.78;4480390;32;33981;-66
2021/07/15 06:02:06;;;;;;;11.68;8.23;;;;;;;30.13;46.51;99329.69;4484050;32;33977;-66
2021/07/15 06:04:33;;;;;;;15.10;8.30;;;;;;;30.12;46.52;99328.84;4484212;32;33551;-66
2021/07/15 06:07:01;;;;;;;14.48;7.57;;;;;;;30.13;46.56;99329.69;4484310;32;33909;-66
2021/07/15 06:09:28;;;;;;;15.05;8.20;;;;;;;30.13;46.51;99333.28;4484224;32;34880;-67
2021/07/15 06:11:56;;;;;;;18.33;8.35;;;;;;;30.13;46.45;99337.94;4483246;32;33461;-66
2021/07/15 06:14:25;;;;;;;15.60;8.00;;;;;;;30.14;46.57;99336.88;4484504;32;33578;-66
2021/07/15 06:16:52;;;;;;;17.77;7.87;;;;;;;30.13;46.54;99325.03;4484307;32;34664;-65
2021/07/15 06:19:20;;;;;;;13.88;7.80;;;;;;;30.14;46.51;99323.94;4469938;32;34055;-65
2021/07/15 06:21:47;;;;;;;17.10;8.80;;;;;;;30.14;46.48;99321.19;4484137;32;35239;-66
2021/07/15 06:24:15;;;;;;;11.10;7.45;;;;;;;30.13;46.33;99325.03;4470094;32;34146;-65
2021/07/15 06:26:44;;;;;;;14.55;8.88;;;;;;;30.14;46.40;99325.88;4469811;32;35159;-66
2021/07/15 06:29:15;;;;;;;13.82;7.65;;;;;;;30.12;46.37;99320.59;4484056;32;33687;-66
2021/07/15 06:31:42;;;;;;;16.85;8.45;;;;;;;30.14;46.30;99314.84;4470071;32;33907;-66
2021/07/15 06:34:10;;;;;;;12.07;7.85;;;;;;;30.15;46.28;99316.50;4483751;32;34237;-66
2021/07/15 06:36:37;;;;;;;16.25;8.40;;;;;;;30.12;46.26;99331.59;4469745;32;34453;-66
2021/07/15 06:39:05;;;;;;;16.05;8.93;;;;;;;30.14;46.33;99325.88;4482678;32;33993;-65
2021/07/15 06:41:32;;;;;;;19.40;9.00;;;;;;;30.14;46.30;99325.88;4483697;32;33931;-65
2021/07/15 06:44:00;;;;;;;15.88;9.18;;;;;;;30.15;46.35;99324.75;4483951;32;33383;-65
2021/07/15 06:46:28;;;;;;;18.40;8.88;;;;;;;30.14;46.37;99317.59;4483540;32;33953;-65
2021/07/15 06:48:55;;;;;;;19.48;8.77;;;;;;;30.14;46.38;99328.59;4467926;32;34043;-65
2021/07/15 06:51:23;;;;;;;17.17;8.57;;;;;;;30.13;46.38;99308.53;4466780;32;33887;-65
2021/07/15 06:53:51;;;;;;;17.30;8.65;;;;;;;30.14;46.37;99306.59;4466741;32;33582;-65
2021/07/15 06:56:18;;;;;;;16.02;8.18;;;;;;;30.13;46.31;99314.03;4482725;32;33887;-64
2021/07/15 06:58:46;;;;;;;15.00;8.50;;;;;;;30.13;46.23;99316.78;4483576;32;34648;-64
2021/07/15 07:01:14;;;;;;;14.55;8.20;;;;;;;30.13;46.18;99322.28;4483753;32;34483;-64
2021/07/15 07:03:41;;;;;;;12.98;7.93;;;;;;;30.12;46.25;99312.34;4483584;32;33918;-64
2021/07/15 07:06:08;;;;;;;16.00;8.77;;;;;;;30.13;46.16;99304.94;4482395;32;34732;-66
2021/07/15 07:08:36;;;;;;;12.85;8.07;;;;;;;30.13;46.08;99322.28;4483327;32;33624;-66
2021/07/15 07:11:03;;;;;;;10.68;7.72;;;;;;;30.13;46.03;99318.69;4483425;32;33656;-66
2021/07/15 07:13:31;;;;;;;11.88;8.43;;;;;;;30.13;45.98;99318.69;4468954;32;33166;-64
2021/07/15 07:15:59;;;;;;;15.02;8.05;;;;;;;30.13;45.97;99314.03;4483582;32;34002;-66
2021/07/15 07:18:26;;;;;;;14.45;7.65;;;;;;;30.13;45.92;99318.69;4483359;32;33244;-66
2021/07/15 07:20:55;;;;;;;12.02;7.55;;;;;;;30.13;45.83;99302.19;4483451;32;34538;-66
2021/07/15 07:23:22;;;;;;;13.33;6.93;;;;;;;30.12;45.90;99301.31;4484333;32;33502;-65
2021/07/15 07:25:50;;;;;;;15.93;7.22;;;;;;;30.14;45.89;99304.66;4485622;32;33123;-66
2021/07/15 07:28:17;;;;;;;11.38;7.28;;;;;;;30.14;45.92;99307.41;4485376;32;34041;-65
2021/07/15 07:30:45;;;;;;;12.48;7.28;;;;;;;30.14;45.82;99301.91;4485486;32;33373;-64
2021/07/15 07:33:12;;;;;;;11.18;7.50;;;;;;;30.14;45.79;99306.59;4485455;32;32827;-65
2021/07/15 07:35:40;;;;;;;13.10;7.15;;;;;;;30.14;45.77;99304.66;4485281;32;33574;-65
2021/07/15 07:38:08;;;;;;;10.50;7.10;;;;;;;30.15;45.70;99305.47;4476652;32;34400;-64
2021/07/15 07:40:35;;;;;;;16.20;7.80;;;;;;;30.15;45.77;99294.47;4493206;31;33868;-64
2021/07/15 07:43:03;;;;;;;14.15;7.57;;;;;;;30.16;45.84;99291.44;4489835;31;33587;-65
2021/07/15 07:45:31;;;;;;;13.57;7.53;;;;;;;30.16;45.91;99291.44;4493021;31;34404;-64
2021/07/15 07:48:00;;;;;;;12.55;7.18;;;;;;;30.16;45.98;99279.59;4458448;32;34074;-64
2021/07/15 07:50:29;;;;;;;11.88;6.80;;;;;;;30.17;45.92;99282.09;4484960;32;34100;-65
2021/07/15 07:52:57;;;;;;;13.62;7.22;;;;;;;30.19;45.84;99285.37;4484867;32;34202;-64
2021/07/15 07:55:25;;;;;;;12.25;7.15;;;;;;;30.20;45.88;99286.19;4471117;31;33876;-64
2021/07/15 07:57:52;;;;;;;10.80;7.12;;;;;;;30.19;45.93;99296.38;4500807;31;34047;-64
2021/07/15 08:00:20;;;;;;;9.30;6.70;;;;;;;30.22;45.86;99297.75;4500644;31;33452;-64
2021/07/15 08:02:52;;;;;;;11.68;7.37;;;;;;;30.22;45.85;99287.56;4486552;31;31987;-65
2021/07/15 08:05:22;;;;;;;13.45;6.93;;;;;;;30.23;45.87;99286.44;4485293;31;34692;-66
2021/07/15 08:07:50;;;;;;;15.80;7.53;;;;;;;30.24;45.91;99292.78;4484914;32;33754;-65
2021/07/15 08:10:18;;;;;;;15.85;7.35;;;;;;;30.23;46.05;99299.41;4470837;32;33985;-66
2021/07/15 08:12:46;;;;;;;11.70;6.60;;;;;;;30.23;46.08;99299.41;4484949;32;33599;-64
2021/07/15 08:15:13;;;;;;;10.90;7.00;;;;;;;30.23;45.99;99296.66;4484960;32;33863;-65
2021/07/15 08:17:41;;;;;;;9.35;6.70;;;;;;;30.24;45.93;99295.53;4484846;32;33541;-66
2021/07/15 08:20:10;;;;;;;13.55;7.70;;;;;;;30.23;45.97;99302.97;4485392;32;33389;-67
2021/07/15 08:22:38;;;;;;;10.77;7.47;;;;;;;30.23;45.98;99302.97;4484915;32;33468;-66
2021/07/15 08:25:07;;;;;;;8.50;6.37;;;;;;;30.23;45.97;99304.91;4470752;32;33914;-66
2021/07/15 08:27:34;;;;;;;9.90;6.40;;;;;;;30.23;45.89;99308.47;4484911;32;34172;-66
2021/07/15 08:30:04;;;;;;;9.10;7.07;;;;;;;30.23;45.90;99302.16;4484871;32;33591;-67
2021/07/15 08:32:32;;;;;;;10.43;6.85;;;;;;;30.22;45.87;99306.84;4469956;32;33320;-67
2021/07/15 08:35:20;;;;;;;10.68;7.22;;;;;;;30.24;45.78;99306.53;4484191;32;34735;-67
2021/07/15 08:37:47;;;;;;;10.10;6.25;;;;;;;30.22;45.79;99309.59;4469994;32;34141;-65
2021/07/15 08:40:15;;;;;;;10.10;7.28;;;;;;;30.23;45.80;99307.66;4483884;32;34290;-66
2021/07/15 08:42:42;;;;;;;9.43;6.70;;;;;;;30.23;45.77;99307.66;4484844;32;33031;-67
2021/07/15 08:45:11;;;;;;;8.65;7.00;;;;;;;30.23;45.75;99315.91;4485017;32;33525;-67
2021/07/15 08:47:41;;;;;;;11.82;7.12;;;;;;;30.22;45.75;99317.84;4470608;32;34087;-67
2021/07/15 08:50:10;;;;;;;9.13;6.80;;;;;;;30.22;45.74;99315.09;4470757;32;33916;-66
2021/07/15 08:52:38;;;;;;;8.98;5.65;;;;;;;30.22;45.74;99319.78;4484902;32;33408;-66
2021/07/15 08:57:41;;;;;;;10.35;7.45;;;;;;;30.22;45.68;99317.84;4471253;32;34738;-67
2021/07/15 09:00:11;;;;;;;10.00;6.37;;;;;;;30.22;45.66;99317.03;4470621;32;34610;-66
2021/07/15 09:02:39;;;;;;;10.93;6.57;;;;;;;30.22;45.62;99319.78;4458008;32;33364;-67
2021/07/15 09:05:08;;;;;;;8.83;6.20;;;;;;;30.23;45.60;99313.16;4485024;32;34020;-66
2021/07/15 09:07:38;;;;;;;9.98;6.10;;;;;;;30.22;45.58;99320.59;4470815;32;33953;-66
2021/07/15 09:10:06;;;;;;;9.82;7.20;;;;;;;30.22;45.59;99312.34;4458271;32;33777;-67
2021/07/15 09:12:33;;;;;;;11.32;7.00;;;;;;;30.21;45.59;99313.41;4484710;32;33351;-65
2021/07/15 09:15:06;;;;;;;9.43;6.87;;;;;;;30.21;45.57;99309.84;4484535;32;33662;-65
2021/07/15 09:17:35;;;;;;;9.43;6.22;;;;;;;30.21;45.55;99313.41;4470965;32;34108;-66
2021/07/15 09:20:05;;;;;;;;;;;;;;;30.21;45.52;99302.41;4471268;32;33614;-65
2021/07/15 09:22:32;;;;;;;9.15;6.20;;;;;;;30.35;45.22;99310.03;4484597;32;33427;-67
2021/07/15 09:25:01;;;;;;;9.30;6.20;;;;;;;30.26;45.41;99312.56;4484210;32;33980;-67
2021/07/15 09:27:29;;;;;;;8.75;5.50;;;;;;;30.22;45.47;99309.59;4484574;32;34105;-67
2021/07/15 09:30:13;;;;;;;7.95;5.70;;;;;;;30.21;45.47;99309.84;4470431;32;34916;-66
2021/07/15 09:32:57;;;;;;;9.05;5.72;;;;;;;30.24;45.45;99303.78;4483853;32;33089;-66
2021/07/15 09:35:43;;;;;;;8.65;6.20;;;;;;;30.23;45.44;99316.72;4470007;32;34680;-66
2021/07/15 09:38:12;;;;;;;7.18;5.82;;;;;;;30.23;45.42;99313.97;4457434;32;34837;-66
2021/07/15 09:40:47;;;;;;;9.30;6.22;;;;;;;30.21;45.43;99312.59;4484519;32;34243;-66
2021/07/15 09:43:18;;;;;;;9.13;6.25;;;;;;;30.20;45.43;99306.28;4471239;32;33517;-67
2021/07/15 09:45:47;;;;;;;7.62;5.60;;;;;;;30.19;45.43;99307.37;4483055;32;34865;-66
2021/07/15 09:48:19;;;;;;;8.60;6.00;;;;;;;30.19;45.41;99299.13;4470070;32;34088;-65
2021/07/15 09:50:51;;;;;;;9.07;5.85;;;;;;;30.20;45.40;99302.69;4470349;32;33862;-67
2021/07/15 09:53:42;;;;;;;8.65;6.18;;;;;;;30.21;45.39;99298.84;4470467;32;33437;-67
2021/07/15 09:56:11;;;;;;;9.32;6.07;;;;;;;30.23;45.32;99300.22;4470012;32;34226;-66
2021/07/15 09:58:46;;;;;;;7.80;6.00;;;;;;;30.20;45.34;99294.44;4440694;32;35462;-66
2021/07/15 10:01:27;;;;;;;10.35;5.82;;;;;;;30.20;45.34;99298.03;4465588;32;33822;-66
2021/07/15 10:03:56;;;;;;;8.82;5.70;;;;;;;30.22;45.31;99289.50;4457626;32;33182;-66
2021/07/15 10:06:24;;;;;;;8.63;5.80;;;;;;;30.20;45.33;99287.00;4469968;32;34204;-67
2021/07/15 10:08:54;;;;;;;9.52;6.05;;;;;;;30.20;45.33;99292.50;4483877;32;34026;-67
2021/07/15 10:11:36;;;;;;;8.40;5.82;;;;;;;30.19;45.32;99288.12;4484364;32;33952;-67
2021/07/15 10:14:05;;;;;;;8.00;6.10;;;;;;;30.20;45.30;99292.50;4469957;32;34466;-67
2021/07/15 10:16:40;;;;;;;7.22;5.53;;;;;;;30.21;45.29;99285.06;4469834;32;32360;-67
2021/07/15 10:19:17;;;;;;;8.98;5.87;;;;;;;30.20;45.30;99277.94;4484295;32;34307;-66
2021/07/15 10:21:45;;;;;;;7.70;5.70;;;;;;;30.21;45.27;99280.41;4470167;32;34139;-66
2021/07/15 10:24:21;;;;;;;8.05;5.53;;;;;;;30.21;45.26;99285.06;4470058;32;33367;-66
2021/07/15 10:26:49;;;;;;;7.68;5.53;;;;;;;30.20;45.28;99280.69;4484045;32;33868;-66
2021/07/15 10:29:17;;;;;;;7.30;5.67;;;;;;;30.21;45.27;99287.84;4484173;32;34850;-66
2021/07/15 10:31:47;;;;;;;7.78;5.87;;;;;;;30.21;45.25;99282.31;4484160;32;34067;-65
2021/07/15 10:34:15;;;;;;;9.13;5.60;;;;;;;30.21;45.25;99296.09;4470059;32;33173;-66
2021/07/15 10:36:42;;;;;;;6.90;5.75;;;;;;;30.22;45.21;99281.25;4470008;32;33940;-66
2021/07/15 10:39:11;;;;;;;7.78;5.57;;;;;;;30.22;45.22;99284.00;4483971;32;34246;-66
2021/07/15 10:41:39;;;;;;;7.12;5.75;;;;;;;30.21;45.21;99271.31;4470216;32;33512;-66
2021/07/15 10:44:06;;;;;;;10.02;6.37;;;;;;;30.21;45.18;99274.88;4456674;32;32958;-66
2021/07/15 10:46:33;;;;;;;6.93;5.53;;;;;;;30.20;45.19;99273.25;4483887;32;34020;-66
2021/07/15 10:49:21;;;;;;;8.48;5.65;;;;;;;30.21;45.18;99274.88;4472127;32;33932;-66
2021/07/15 10:51:49;;;;;;;8.27;5.28;;;;;;;30.21;45.17;99277.66;4483796;32;33928;-66
2021/07/15 10:54:17;;;;;;;8.45;5.85;;;;;;;30.21;45.18;99277.66;4469793;32;34128;-66
2021/07/15 10:56:50;;;;;;;7.50;5.47;;;;;;;30.21;45.18;99274.06;4469823;32;34066;-66
2021/07/15 10:59:31;;;;;;;7.53;5.60;;;;;;;30.21;45.17;99274.88;4483457;32;34925;-66
2021/07/15 11:01:59;;;;;;;8.07;5.70;;;;;;;30.22;45.10;99268.31;4469666;32;34902;-66
2021/07/15 11:04:38;;;;;;;7.37;5.57;;;;;;;30.21;45.11;99268.56;4482360;32;33486;-66
2021/07/15 11:07:23;;;;;;;7.43;5.45;;;;;;;30.21;45.15;99268.56;4483822;32;33924;-65
2021/07/15 11:09:52;;;;;;;7.90;5.78;;;;;;;30.24;45.08;99270.75;4483588;32;34286;-67
2021/07/15 11:12:29;;;;;;;8.90;5.93;;;;;;;30.20;45.13;99266.94;4467484;31;33858;-65
2021/07/15 11:15:16;;;;;;;8.75;5.28;;;;;;;30.22;45.11;99265.56;4473175;32;33112;-66
2021/07/15 11:17:47;;;;;;;7.78;5.93;;;;;;;30.24;45.08;99259.75;4468426;32;34028;-66
2021/07/15 11:20:25;;;;;;;7.10;5.25;;;;;;;30.20;45.08;99259.50;4481685;32;34229;-67
2021/07/15 11:22:56;;;;;;;6.82;5.15;;;;;;;30.23;45.04;99258.94;4481836;32;34028;-67
2021/07/15 11:25:32;;;;;;;7.80;5.20;;;;;;;30.21;45.14;99255.63;4478795;32;34243;-68
2021/07/15 11:28:02;;;;;;;6.75;5.12;;;;;;;30.22;45.11;99261.97;4476884;32;34077;-67
2021/07/15 11:30:35;;;;;;;6.60;5.32;;;;;;;30.22;45.08;99261.97;4468052;32;34610;-67
2021/07/15 11:33:19;;;;;;;7.32;5.00;;;;;;;30.21;45.08;99263.88;4467829;32;33935;-66
2021/07/15 11:36:09;;;;;;;6.75;5.10;;;;;;;30.23;45.03;99256.19;4467645;32;34491;-67
2021/07/15 11:38:58;;;;;;;6.90;5.12;;;;;;;30.23;45.00;99264.44;4463538;32;34504;-66
2021/07/15 11:41:49;;;;;;;6.97;5.10;;;;;;;30.24;45.02;99273.50;4482884;32;34122;-67